»·PEaware :: UAL2290 KSFO-KONT

UAL2290 :: KSFO-KONT

FLIGHT INFORMATION

Flight Status: Arrived
Operator:
United Airlines
More flights by this operator :: More flights under this callsign
Pilot: Nash F. (39613)
Aircraft: BOEING 737-800
(B738)
More flights by this aircraft type
Origin: KSFO San Francisco Intl
United States
Destination: KONT Ontario Intl
United States
More flights between these airports :: More routes between these airports
Route: LOSHN EHF ZIGGY7
File this flight plan on PilotEdge
Remarks:
Altitude:
(Current/Filed)
33,000ft
Speed:
(Current/Filed)
330kts
Departed: 24-Jan-23 05:46 PM
Arrived: 24-Jan-23 06:43 PM
Distance/Time
Traveled:
315nm/0:57
Distance/Time
To Go:
Arrived

Flight Plot

Page will automatically refresh every two minutes.

Flight plan parsing failed; only flown route is shown


Map Options




Map Legend


Flown Route
Filed Route
Departure Airport
Arrival Airport
Navaid (VOR, NDB)
Fix

Horizontal Profiles

Position Reports

Time Latitude Longitude Heading Altitude Ground
Speed
24-Jan-23 17:10 37.619755 -122.388281 27 15ft 0kts
24-Jan-23 17:11 37.619755 -122.388281 27 15ft 0kts
24-Jan-23 17:12 37.619755 -122.388281 27 15ft 0kts
24-Jan-23 17:13 37.619755 -122.388281 27 15ft 0kts
24-Jan-23 17:14 37.619755 -122.388281 27 15ft 0kts
24-Jan-23 17:15 37.619755 -122.388281 27 15ft 0kts
24-Jan-23 17:16 37.619755 -122.388281 27 15ft 0kts
24-Jan-23 17:17 37.619755 -122.388281 27 15ft 0kts
24-Jan-23 17:18 37.619755 -122.388281 27 15ft 0kts
24-Jan-23 17:19 37.619755 -122.388281 27 24ft 0kts
24-Jan-23 17:20 37.619755 -122.388281 27 24ft 0kts
24-Jan-23 17:21 37.619755 -122.388281 27 24ft 0kts
24-Jan-23 17:21 37.619755 -122.388281 27 24ft 0kts
24-Jan-23 17:23 37.619755 -122.388281 27 24ft 0kts
24-Jan-23 17:24 37.619755 -122.388281 27 24ft 0kts
24-Jan-23 17:25 37.619755 -122.388281 27 24ft 0kts
24-Jan-23 17:26 37.619755 -122.388281 27 24ft 0kts
24-Jan-23 17:26 37.619755 -122.388281 27 24ft 0kts
24-Jan-23 17:27 37.619755 -122.388281 27 24ft 0kts
24-Jan-23 17:29 37.619755 -122.388281 27 24ft 0kts
24-Jan-23 17:30 37.619755 -122.388281 27 24ft 0kts
24-Jan-23 17:31 37.619755 -122.388281 27 24ft 0kts
24-Jan-23 17:31 37.619681 -122.388329 32 17ft 2kts
24-Jan-23 17:32 37.619013 -122.388830 2 15ft 2kts
24-Jan-23 17:33 37.618547 -122.388670 333 15ft 0kts
24-Jan-23 17:35 37.618547 -122.388670 333 14ft 0kts
24-Jan-23 17:36 37.618524 -122.389061 249 13ft 8kts
24-Jan-23 17:36 37.618568 -122.389569 296 15ft 0kts
24-Jan-23 17:37 37.618568 -122.389569 296 15ft 0kts
24-Jan-23 17:38 37.619435 -122.391673 298 14ft 14kts
24-Jan-23 17:39 37.622612 -122.389624 75 12ft 19kts
24-Jan-23 17:40 37.620263 -122.383459 118 20ft 20kts
24-Jan-23 17:41 37.616005 -122.380066 207 14ft 21kts
24-Jan-23 17:42 37.611058 -122.383346 207 16ft 18kts
24-Jan-23 17:43 37.609105 -122.383502 123 19ft 0kts
24-Jan-23 17:44 37.608926 -122.383133 119 20ft 8kts
24-Jan-23 17:45 37.629746 -122.368595 25 853ft 171kts
24-Jan-23 17:46 37.684492 -122.361136 4 3688ft 223kts
24-Jan-23 17:47 37.719839 -122.423973 256 7009ft 276kts
24-Jan-23 17:48 37.651109 -122.466065 180 9837ft 309kts
24-Jan-23 17:49 37.562927 -122.467804 182 11965ft 321kts
24-Jan-23 17:50 37.467031 -122.470478 181 14592ft 355kts
24-Jan-23 17:51 37.382153 -122.417100 125 17354ft 370kts
24-Jan-23 17:52 37.318557 -122.311537 126 19898ft 387kts
24-Jan-23 17:53 37.251673 -122.202308 126 22273ft 401kts
24-Jan-23 17:54 37.182177 -122.089819 126 24400ft 417kts
24-Jan-23 17:55 37.109576 -121.972761 127 26095ft 433kts
24-Jan-23 17:56 37.035069 -121.853110 127 28129ft 437kts
24-Jan-23 17:57 36.960139 -121.733163 128 30102ft 439kts
24-Jan-23 17:58 36.883950 -121.611595 128 31373ft 453kts
24-Jan-23 17:59 36.805595 -121.486914 128 32675ft 461kts
24-Jan-23 18:00 36.725425 -121.359995 128 33366ft 471kts
24-Jan-23 18:01 36.642869 -121.229809 128 33413ft 493kts
24-Jan-23 18:02 36.555186 -121.092071 128 33404ft 520kts
24-Jan-23 18:03 36.464672 -120.950461 129 33377ft 522kts
24-Jan-23 18:04 36.374411 -120.809816 129 33391ft 522kts
24-Jan-23 18:05 36.283643 -120.669027 129 33380ft 522kts
24-Jan-23 18:06 36.192937 -120.528893 129 33385ft 522kts
24-Jan-23 18:07 36.101927 -120.388852 129 33382ft 522kts
24-Jan-23 18:08 36.010636 -120.248947 129 33392ft 523kts
24-Jan-23 18:09 35.919333 -120.109581 129 33380ft 523kts
24-Jan-23 18:10 35.832579 -119.965996 114 33385ft 523kts
24-Jan-23 18:11 35.769533 -119.804359 114 33379ft 524kts
24-Jan-23 18:12 35.705264 -119.643478 114 33381ft 525kts
24-Jan-23 18:13 35.640472 -119.482260 114 33381ft 525kts
24-Jan-23 18:14 35.575450 -119.321184 115 33387ft 526kts
24-Jan-23 18:15 35.510448 -119.160892 115 33382ft 526kts
24-Jan-23 18:16 35.417187 -119.031185 146 33376ft 492kts
24-Jan-23 18:17 35.312422 -118.933642 144 33402ft 471kts
24-Jan-23 18:18 35.207720 -118.834185 144 32027ft 475kts
24-Jan-23 18:19 35.103486 -118.735653 143 30029ft 471kts
24-Jan-23 18:20 35.017085 -118.623037 127 27113ft 458kts
24-Jan-23 18:21 34.937714 -118.507402 128 25572ft 427kts
24-Jan-23 18:22 34.863787 -118.399927 128 24594ft 401kts
24-Jan-23 18:23 34.793704 -118.298229 128 23488ft 386kts
24-Jan-23 18:24 34.725619 -118.199720 128 22075ft 376kts
24-Jan-23 18:25 34.658931 -118.103477 128 20689ft 369kts
24-Jan-23 18:26 34.601932 -118.002441 114 19427ft 357kts
24-Jan-23 18:27 34.555043 -117.896795 115 17999ft 355kts
24-Jan-23 18:28 34.507962 -117.793805 116 16355ft 345kts
24-Jan-23 18:29 34.461494 -117.692606 116 15020ft 341kts
24-Jan-23 18:30 34.415586 -117.592991 117 13531ft 340kts
24-Jan-23 18:31 34.369666 -117.493620 116 11824ft 328kts
24-Jan-23 18:32 34.326788 -117.401130 116 10251ft 303kts
24-Jan-23 18:33 34.272104 -117.333410 164 9051ft 287kts
24-Jan-23 18:34 34.197578 -117.316883 171 8442ft 256kts
24-Jan-23 18:35 34.127700 -117.306474 171 6986ft 251kts
24-Jan-23 18:36 34.063883 -117.319333 240 5706ft 232kts
24-Jan-23 18:37 34.056231 -117.390163 271 4167ft 210kts
24-Jan-23 18:38 34.056612 -117.450169 277 3834ft 169kts
24-Jan-23 18:39 34.056983 -117.503634 271 2473ft 154kts
24-Jan-23 18:40 34.056751 -117.555041 269 1512ft 153kts
24-Jan-23 18:41 34.056878 -117.602269 269 942ft 87kts
24-Jan-23 18:42 34.057901 -117.607421 63 943ft 0kts
24-Jan-23 18:43 34.057901 -117.607421 63 943ft 0kts
24-Jan-23 18:44 34.057991 -117.604885 91 944ft 13kts
24-Jan-23 18:45 34.057986 -117.600496 90 941ft 12kts
24-Jan-23 18:46 34.059916 -117.599592 24 941ft 0kts
24-Jan-23 18:47 34.059917 -117.599592 24 941ft 0kts
24-Jan-23 18:48 34.059917 -117.599592 24 941ft 0kts
24-Jan-23 18:49 34.059917 -117.599592 24 941ft 0kts
24-Jan-23 18:50 34.059917 -117.599592 24 941ft 0kts

Navigation Log

Ident Type
Flight plan parsing failed, navigation log unavailable